Terminal Aerodrome Forecast
Issued by NWS

Home | Current Version | Previous Version | Text Only | Print | Product List | Glossary On
Versions: 1 2 3 4 5 6 7 8 9 10 11 12 13 14 15 16 17 18 19 20 21 22 23
000
FTUS46 KEKA 280200 AAA
TAFCEC
TAF AMD
KCEC 280210Z 2802/2824 31004KT 1/4SM FG VV002
      TEMPO 2803/2807 VRB03KT 3/4SM BR OVC002
     FM280800 00000KT 1/4SM FG VV002
     FM281500 18004KT 5SM BR OVC004=

USA.gov is the U.S. government's official web portal to all federal, state and local government web resources and services.